Time;durP1;ratioP1;P1;durP2;ratioP2;P2;SDS_P1;SDS_P2;PMS_P1;PMS_P2;Temp;Humidity;BMP_temperature;BMP_pressure;BME280_temperature;BME280_humidity;BME280_pressure;Samples;Min_cycle;Max_cycle;Signal;HPM_P1;HPM_P2
2021/01/19 00:00:22;;;;;;;40.06;20.83;;;;;;;-15.40;65.90;99600.25;338507;117;1962125;-71
2021/01/19 00:01:27;;;;;;;44.98;21.43;;;;;;;-15.36;65.80;99603.61;337889;118;1961966;-71
2021/01/19 00:02:33;;;;;;;46.73;22.67;;;;;;;-15.38;65.89;99598.47;330324;116;2259985;-71
2021/01/19 00:03:38;;;;;;;44.31;19.89;;;;;;;-15.37;65.65;99600.18;334560;116;1960931;-71
2021/01/19 00:04:43;;;;;;;45.02;21.23;;;;;;;-15.38;65.86;99595.03;342079;116;1962982;-71
2021/01/19 00:05:49;;;;;;;43.76;22.97;;;;;;;-15.39;65.98;99594.19;324917;118;2890014;-71
2021/01/19 00:07:06;;;;;;;40.17;20.54;;;;;;;-15.38;65.79;99590.70;333139;118;1962004;-72
2021/01/19 00:08:12;;;;;;;41.78;20.23;;;;;;;-15.39;65.83;99589.02;363660;105;2857686;-69
2021/01/19 00:09:17;;;;;;;45.37;21.55;;;;;;;-15.36;65.78;99590.66;337891;110;1962233;-70
2021/01/19 00:10:24;;;;;;;42.98;19.87;;;;;;;-15.37;65.78;99583.77;363697;109;1961851;-70
2021/01/19 00:11:29;;;;;;;39.02;19.94;;;;;;;-15.39;65.82;99590.76;357948;109;2183948;-71
2021/01/19 00:12:35;;;;;;;44.58;19.87;;;;;;;-15.36;65.83;99595.84;364202;109;1961993;-70
2021/01/19 00:13:40;;;;;;;43.46;20.78;;;;;;;-15.35;65.73;99590.59;362793;110;1963040;-70
2021/01/19 00:14:45;;;;;;;40.09;21.32;;;;;;;-15.35;65.69;99595.78;340764;110;2495933;-70
2021/01/19 00:15:51;;;;;;;39.66;20.54;;;;;;;-15.35;65.53;99592.34;337825;112;1962026;-70
2021/01/19 00:16:57;;;;;;;40.29;20.38;;;;;;;-15.34;65.61;99597.50;362211;110;1963997;-70
2021/01/19 00:18:03;;;;;;;41.93;19.57;;;;;;;-15.33;65.61;99594.00;337953;112;2159008;-71
2021/01/19 00:19:12;;;;;;;46.53;22.34;;;;;;;-15.29;65.62;99598.20;361976;109;1961965;-71
2021/01/19 00:20:19;;;;;;;53.56;22.66;;;;;;;-15.27;65.57;99594.71;351178;113;1961944;-71
2021/01/19 00:21:24;;;;;;;42.02;20.09;;;;;;;-15.27;65.66;99592.13;335635;113;2386214;-71
2021/01/19 00:22:40;;;;;;;40.43;21.09;;;;;;;-15.26;65.49;99589.50;345312;113;1962037;-71
2021/01/19 00:23:46;;;;;;;39.52;21.54;;;;;;;-15.26;65.47;99584.31;358065;110;1961975;-71
2021/01/19 00:24:51;;;;;;;35.54;18.94;;;;;;;-15.25;65.67;99586.00;350568;112;2178977;-71
2021/01/19 00:25:56;;;;;;;39.94;20.24;;;;;;;-15.22;65.47;99590.24;346451;112;1961967;-71
2021/01/19 00:27:03;;;;;;;42.17;20.34;;;;;;;-15.26;65.16;99584.31;355339;112;1962079;-71
2021/01/19 00:28:10;;;;;;;34.08;17.83;;;;;;;-15.30;65.30;99588.72;325670;112;2212991;-71
2021/01/19 00:29:15;;;;;;;41.21;20.56;;;;;;;-15.25;65.36;99595.52;356679;112;1961936;-70
2021/01/19 00:30:32;;;;;;;40.76;20.32;;;;;;;-15.29;65.44;99592.19;320455;112;2121640;-71
2021/01/19 00:31:41;;;;;;;38.69;19.46;;;;;;;-15.27;65.57;99592.96;358574;111;1964965;31
2021/01/19 00:32:47;;;;;;;45.53;20.07;;;;;;;-15.27;65.52;99592.96;346292;115;1960849;-70
2021/01/19 00:33:52;;;;;;;46.71;21.61;;;;;;;-15.31;65.21;99594.81;339019;115;2180018;-71
2021/01/19 00:34:57;;;;;;;40.48;18.89;;;;;;;-15.29;65.46;99602.55;343010;115;1962962;-71
2021/01/19 00:36:04;;;;;;;36.49;20.79;;;;;;;-15.24;65.40;99597.20;344767;115;1962096;-70
2021/01/19 00:37:10;;;;;;;32.92;16.90;;;;;;;-15.24;65.32;99592.02;321507;116;1961914;-70
2021/01/19 00:38:15;;;;;;;41.06;20.96;;;;;;;-15.23;65.27;99586.81;337342;117;1962159;-70
2021/01/19 00:39:21;;;;;;;38.06;20.32;;;;;;;-15.20;65.23;99584.13;341262;117;1961986;-71
2021/01/19 00:40:37;;;;;;;39.95;19.22;;;;;;;-15.20;65.04;99583.28;309175;117;2104307;-70
2021/01/19 00:41:44;;;;;;;36.94;19.37;;;;;;;-15.85;65.11;99481.66;352260;113;1963054;-71
2021/01/19 00:42:49;;;;;;;40.47;21.02;;;;;;;-15.22;65.21;99585.91;330693;109;1962204;-71
2021/01/19 00:43:55;;;;;;;37.69;18.73;;;;;;;-15.20;65.27;99591.05;340176;115;1962000;-71
2021/01/19 00:45:01;;;;;;;42.64;20.54;;;;;;;-15.22;65.14;99591.08;352655;113;1961956;-71
2021/01/19 00:46:07;;;;;;;44.07;20.90;;;;;;;-15.25;65.02;99588.59;359458;112;1963966;-71
2021/01/19 00:47:13;;;;;;;37.87;19.16;;;;;;;-15.24;65.10;99587.69;360183;110;1962879;-71
2021/01/19 00:48:18;;;;;;;42.92;20.28;;;;;;;-15.24;65.15;99579.91;346592;110;2345977;-71
2021/01/19 00:49:23;;;;;;;41.62;19.51;;;;;;;-15.25;64.90;99580.82;354439;110;1961945;-71
2021/01/19 00:50:30;;;;;;;41.39;20.41;;;;;;;-15.22;65.01;99580.72;359502;110;1966021;-71
2021/01/19 00:51:46;;;;;;;41.95;20.22;;;;;;;-15.27;65.11;99580.02;340934;111;2179927;-71
2021/01/19 00:52:52;;;;;;;43.81;20.93;;;;;;;-15.26;65.07;99573.11;351898;113;1961983;-71
2021/01/19 00:53:58;;;;;;;39.60;19.41;;;;;;;-15.29;64.99;99577.48;352463;109;2164937;-71
2021/01/19 00:55:07;;;;;;;40.26;20.74;;;;;;;-15.29;65.36;99571.47;363077;109;1962031;-71
2021/01/19 00:56:25;;;;;;;40.42;20.06;;;;;;;-15.26;65.28;99579.14;356873;111;1961971;-71
2021/01/19 00:57:30;;;;;;;40.28;20.18;;;;;;;-15.24;65.04;99571.30;349514;107;1962042;-70
2021/01/19 00:58:36;;;;;;;42.30;20.57;;;;;;;-15.26;65.03;99580.89;367311;107;1962011;-71
2021/01/19 00:59:42;;;;;;;47.19;20.36;;;;;;;-15.25;64.92;99579.98;367763;107;1963001;-70
2021/01/19 01:00:58;;;;;;;38.06;19.10;;;;;;;-15.25;64.84;99575.64;368750;107;1961775;-71
2021/01/19 01:02:05;;;;;;;38.25;18.81;;;;;;;-15.27;64.87;99568.81;346423;111;2214979;-71
2021/01/19 01:03:10;;;;;;;41.86;19.77;;;;;;;-15.31;65.00;99568.06;345285;113;1962896;-71
2021/01/19 01:04:16;;;;;;;45.18;22.03;;;;;;;-15.36;65.24;99563.02;349727;114;1965008;-71
2021/01/19 01:05:22;;;;;;;42.31;19.22;;;;;;;-15.40;65.15;99568.33;338897;115;2239876;-71
2021/01/19 01:06:28;;;;;;;41.36;19.19;;;;;;;-15.40;65.29;99573.50;340157;117;1962055;-70
2021/01/19 01:07:37;;;;;;;41.34;20.08;;;;;;;-15.41;65.35;99564.89;338092;114;2843951;-70
2021/01/19 01:08:43;;;;;;;37.31;18.38;;;;;;;-15.44;65.45;99569.33;314233;113;2951930;-71
2021/01/19 01:09:48;;;;;;;46.21;21.51;;;;;;;-15.42;65.35;99567.55;334726;113;1962081;-71
2021/01/19 01:10:54;;;;;;;44.11;19.29;;;;;;;-15.43;65.48;99566.67;345986;115;1960780;-71
2021/01/19 01:12:00;;;;;;;40.12;18.81;;;;;;;-15.41;65.35;99567.48;349905;113;1960799;-71
2021/01/19 01:13:06;;;;;;;41.57;19.74;;;;;;;-15.43;65.33;99569.27;351137;114;1962981;-71
2021/01/19 01:14:13;;;;;;;44.71;20.32;;;;;;;-15.43;65.48;99565.83;351570;114;1960892;-71
2021/01/19 01:15:22;;;;;;;42.78;19.93;;;;;;;-15.45;65.50;99567.61;336033;114;1962995;-71
2021/01/19 01:16:28;;;;;;;40.09;20.90;;;;;;;-15.46;65.43;99569.36;350766;114;1961948;-71
2021/01/19 01:17:39;;;;;;;45.07;21.51;;;;;;;-15.53;65.50;99565.25;351208;113;1961943;-70
2021/01/19 01:18:44;;;;;;;37.49;21.74;;;;;;;-15.56;65.73;99562.75;316998;113;2105118;-70
2021/01/19 01:19:49;;;;;;;42.21;19.09;;;;;;;-15.53;65.68;99570.42;355361;113;1962098;-71
2021/01/19 01:20:56;;;;;;;39.72;20.31;;;;;;;-15.53;65.59;99560.07;331994;113;2541931;-71
2021/01/19 01:22:01;;;;;;;38.42;20.72;;;;;;;-15.54;65.58;99566.16;335418;113;1964000;-71
2021/01/19 01:23:13;;;;;;;38.27;19.49;;;;;;;-15.55;65.65;99569.65;327970;114;2828900;-71
2021/01/19 01:24:17;;;;;;;43.38;19.97;;;;;;;-15.54;65.52;99561.81;352647;113;1961942;-71
2021/01/19 01:25:23;;;;;;;37.34;20.04;;;;;;;-15.54;65.56;99560.97;316860;108;2143697;-71
2021/01/19 01:26:31;;;;;;;41.30;21.63;;;;;;;-15.55;65.55;99572.23;338773;112;2836012;-71
2021/01/19 01:27:36;;;;;;;38.42;20.31;;;;;;;-15.57;65.90;99568.84;329405;116;1962962;-71
2021/01/19 01:28:42;;;;;;;36.15;19.60;;;;;;;-15.57;65.90;99566.25;349430;114;1961977;-71
2021/01/19 01:29:48;;;;;;;45.51;21.00;;;;;;;-15.56;65.89;99566.19;351311;111;2196973;-69
2021/01/19 01:30:54;;;;;;;40.44;20.83;;;;;;;-15.61;66.03;99577.58;354751;114;1961942;-70
2021/01/19 01:31:59;;;;;;;43.16;20.08;;;;;;;-15.58;66.07;99561.98;357761;111;1961988;-70
2021/01/19 01:33:05;;;;;;;38.34;19.21;;;;;;;-15.55;65.95;99569.65;348190;111;2163025;-70
2021/01/19 01:34:10;;;;;;;38.75;19.33;;;;;;;-15.61;66.29;99575.86;343446;115;1961947;-71
2021/01/19 01:35:17;;;;;;;46.07;21.73;;;;;;;-15.59;66.08;99573.20;350896;114;1962052;-70
2021/01/19 01:36:25;;;;;;;39.95;20.68;;;;;;;-15.62;66.37;99570.71;350771;114;1960746;-70
2021/01/19 01:37:30;;;;;;;37.09;19.32;;;;;;;-15.58;66.28;99569.74;335665;116;2296890;-70
2021/01/19 01:38:35;;;;;;;41.35;20.98;;;;;;;-15.56;66.13;99571.36;348847;112;1962034;-71
2021/01/19 01:39:42;;;;;;;38.24;19.48;;;;;;;-15.58;66.10;99559.39;353054;112;1961966;-70
2021/01/19 01:40:49;;;;;;;38.64;19.57;;;;;;;-15.55;66.11;99567.06;354317;112;1963004;-70
2021/01/19 01:41:54;;;;;;;37.59;18.99;;;;;;;-15.55;66.20;99564.47;355502;112;1962045;-70
2021/01/19 01:43:02;;;;;;;41.85;19.39;;;;;;;-15.58;66.30;99573.17;338927;112;2426021;-70
2021/01/19 01:44:08;;;;;;;38.68;19.50;;;;;;;-15.55;66.21;99573.08;352658;114;1964104;-70
2021/01/19 01:45:20;;;;;;;34.13;18.70;;;;;;;-15.53;66.11;99568.71;353393;114;1961873;-70
2021/01/19 01:46:31;;;;;;;38.08;18.67;;;;;;;-15.56;66.36;99567.94;332647;113;1962088;-70
2021/01/19 01:47:38;;;;;;;40.04;20.08;;;;;;;-15.54;66.36;99560.97;319978;113;2175019;-70
2021/01/19 01:48:47;;;;;;;38.29;18.59;;;;;;;-15.52;66.38;99564.38;324468;113;2850991;-70
2021/01/19 01:49:54;;;;;;;35.33;19.29;;;;;;;-15.49;66.17;99563.44;337252;113;2872042;-70
2021/01/19 01:51:01;;;;;;;33.34;18.62;;;;;;;-15.48;66.26;99565.12;365915;107;1962158;-71
2021/01/19 01:52:07;;;;;;;34.39;19.03;;;;;;;-15.52;66.43;99561.78;349353;108;1963861;-72
2021/01/19 01:53:13;;;;;;;37.04;18.54;;;;;;;-15.47;66.32;99557.32;368577;107;1965246;-71
2021/01/19 01:54:18;;;;;;;39.30;20.57;;;;;;;-15.46;66.44;99561.59;357249;107;2391003;-71
2021/01/19 01:55:24;;;;;;;40.63;18.30;;;;;;;-15.43;66.19;99561.50;364689;106;1963015;-71
2021/01/19 01:56:30;;;;;;;34.53;18.73;;;;;;;-15.39;65.96;99563.11;369762;107;1960823;-71
2021/01/19 01:57:39;;;;;;;28.88;16.33;;;;;;;-15.42;66.08;99560.63;352645;107;2194020;-71
2021/01/19 01:58:45;;;;;;;41.43;18.82;;;;;;;-15.38;65.97;99563.95;341720;109;2208912;-71
2021/01/19 01:59:54;;;;;;;34.34;17.34;;;;;;;-15.35;65.89;99564.70;359177;110;1962070;-71
2021/01/19 02:01:03;;;;;;;39.31;18.67;;;;;;;-15.37;65.96;99563.92;328227;111;2838986;-71
2021/01/19 02:02:12;;;;;;;38.49;20.43;;;;;;;-15.40;66.14;99568.33;364880;109;1962046;-71
2021/01/19 02:03:19;;;;;;;37.98;19.62;;;;;;;-15.35;66.08;99563.86;364948;109;1964051;-70
2021/01/19 02:04:25;;;;;;;40.16;20.29;;;;;;;-15.36;65.96;99564.77;348419;109;1961999;-70
2021/01/19 02:05:30;;;;;;;38.36;19.17;;;;;;;-15.38;65.94;99563.95;365606;109;1962928;-71
2021/01/19 02:06:36;;;;;;;30.38;17.67;;;;;;;-15.40;66.00;99563.98;365673;109;1962035;-71
2021/01/19 02:07:54;;;;;;;35.67;17.64;;;;;;;-15.37;65.73;99563.92;347757;109;1961918;-71
2021/01/19 02:09:09;;;;;;;32.78;15.92;;;;;;;-15.41;65.80;99564.89;320688;108;2239538;-71
2021/01/19 02:10:24;;;;;;;29.69;15.26;;;;;;;-15.42;65.84;99567.55;356989;110;1963947;-71
2021/01/19 02:11:55;;;;;;;33.93;17.23;;;;;;;-15.46;65.92;99569.36;341531;117;1961939;-70
2021/01/19 02:13:20;;;;;;;34.10;16.29;;;;;;;-15.45;65.90;99563.31;321699;111;2238910;-71
2021/01/19 02:14:29;;;;;;;30.76;16.12;;;;;;;-15.49;66.07;99561.69;351145;109;1961917;-71
2021/01/19 02:15:40;;;;;;;34.42;15.50;;;;;;;-15.52;66.00;99572.98;337958;113;1964001;-71
2021/01/19 02:18:11;;;;;;;35.53;16.26;;;;;;;-15.52;66.31;99569.55;391661;104;1986946;-71
2021/01/19 02:19:36;;;;;;;32.84;17.21;;;;;;;-15.63;66.24;99571.62;359808;109;1962070;-71
2021/01/19 02:21:20;;;;;;;30.68;15.04;;;;;;;-15.66;66.27;99574.27;362945;107;2171992;-71
2021/01/19 02:23:01;;;;;;;35.58;16.17;;;;;;;-15.69;66.24;99580.41;344046;107;2586924;-71
2021/01/19 02:24:10;;;;;;;25.93;13.74;;;;;;;-15.73;66.48;99571.05;362838;109;1963016;-70
2021/01/19 02:25:20;;;;;;;30.37;16.31;;;;;;;-15.80;66.34;99578.12;357559;113;1962015;-70
2021/01/19 02:26:33;;;;;;;26.27;13.51;;;;;;;-15.79;66.35;99577.26;356948;113;1961988;-70
2021/01/19 02:27:46;;;;;;;32.83;16.50;;;;;;;-15.81;66.35;99581.63;344894;116;1962018;-70
2021/01/19 02:28:55;;;;;;;29.48;14.28;;;;;;;-15.86;66.62;99570.55;327635;122;1962046;-70
2021/01/19 02:30:06;;;;;;;29.87;14.73;;;;;;;-15.85;66.65;99569.64;344750;113;1962021;-70
2021/01/19 02:31:24;;;;;;;26.17;13.80;;;;;;;-15.85;66.41;99577.41;320843;113;2949015;-70
2021/01/19 02:32:54;;;;;;;28.64;13.62;;;;;;;-15.90;66.49;99576.72;348571;114;1961948;-70
2021/01/19 02:34:25;;;;;;;24.67;11.60;;;;;;;-15.96;66.52;99572.53;349129;113;2208016;-70
2021/01/19 02:35:55;;;;;;;30.37;14.38;;;;;;;-15.94;66.23;99569.08;355429;111;1963994;-70
2021/01/19 02:37:14;;;;;;;29.77;11.44;;;;;;;-16.01;66.23;99563.20;339701;111;2851931;-70
2021/01/19 02:38:29;;;;;;;26.03;13.21;;;;;;;-16.08;66.64;99572.05;315659;112;2862976;-70
2021/01/19 02:39:45;;;;;;;25.67;13.02;;;;;;;-16.15;66.71;99563.59;321942;113;2049265;-70
2021/01/19 02:40:54;;;;;;;28.52;11.94;;;;;;;-16.18;66.80;99561.94;353850;113;1962035;-70
2021/01/19 02:42:04;;;;;;;21.22;11.84;;;;;;;-16.18;66.53;99571.44;357614;111;1964018;-70
2021/01/19 02:43:23;;;;;;;26.73;13.33;;;;;;;-16.20;66.53;99565.45;317487;111;2877938;-70
2021/01/19 02:44:31;;;;;;;24.28;11.95;;;;;;;-16.22;66.63;99564.64;332501;113;2876982;-71
2021/01/19 02:45:37;;;;;;;21.24;10.16;;;;;;;-16.34;67.06;99567.58;352118;112;1961863;-70
2021/01/19 02:46:45;;;;;;;25.79;12.51;;;;;;;-16.31;66.85;99562.31;353146;112;1962065;-70
2021/01/19 02:47:50;;;;;;;22.55;10.80;;;;;;;-16.33;66.98;99566.67;341800;112;2344966;-70
2021/01/19 02:48:55;;;;;;;28.39;12.54;;;;;;;-16.41;67.18;99567.71;347682;113;1962043;-70
2021/01/19 02:50:10;;;;;;;25.10;12.88;;;;;;;-16.41;67.24;99569.45;358428;111;1961090;-70
2021/01/19 02:51:17;;;;;;;25.54;12.51;;;;;;;-16.43;67.32;99566.05;358521;113;1960809;-70
2021/01/19 02:52:22;;;;;;;26.08;11.71;;;;;;;-16.42;67.29;99565.19;342385;111;1960789;-70
2021/01/19 02:53:29;;;;;;;29.48;13.48;;;;;;;-16.45;67.28;99571.28;350788;113;1960908;-70
2021/01/19 02:54:36;;;;;;;24.95;13.20;;;;;;;-16.47;67.32;99567.04;328432;111;2188870;-70
2021/01/19 02:55:43;;;;;;;21.59;11.97;;;;;;;-16.48;67.50;99568.78;358212;108;1961132;-71
2021/01/19 02:57:20;;;;;;;28.42;12.35;;;;;;;-16.53;67.53;99570.63;367779;108;1960830;-71
2021/01/19 02:58:32;;;;;;;25.04;11.62;;;;;;;-16.52;67.52;99564.56;356786;108;1963003;-71
2021/01/19 02:59:51;;;;;;;22.55;11.24;;;;;;;-16.50;67.52;99569.70;347624;111;2841874;-71
2021/01/19 03:01:10;;;;;;;23.86;12.54;;;;;;;-16.53;67.55;99565.47;350172;108;2318965;-70
2021/01/19 03:02:21;;;;;;;24.29;10.98;;;;;;;-16.57;67.66;99569.00;323171;112;2694056;-72
2021/01/19 03:03:30;;;;;;;22.23;10.95;;;;;;;-16.63;67.66;99569.17;353641;103;1961940;-71
2021/01/19 03:04:37;;;;;;;23.46;11.20;;;;;;;-16.64;67.79;99570.06;353779;112;1962959;-70
2021/01/19 03:05:44;;;;;;;22.14;12.38;;;;;;;-16.66;67.94;99571.83;335890;112;1961914;-71
2021/01/19 03:06:52;;;;;;;21.47;11.24;;;;;;;-16.68;67.82;99565.84;353416;112;1962039;-71
2021/01/19 03:08:01;;;;;;;28.38;11.88;;;;;;;-16.65;67.88;99568.34;352730;115;1961040;-71
2021/01/19 03:09:08;;;;;;;21.88;11.38;;;;;;;-16.64;67.69;99570.91;351015;114;1962021;-71
2021/01/19 03:10:16;;;;;;;25.82;10.98;;;;;;;-16.67;67.67;99565.82;337639;115;1962070;-71
2021/01/19 03:11:25;;;;;;;29.09;13.31;;;;;;;-16.69;67.65;99562.42;341153;114;2322977;-70
2021/01/19 03:12:33;;;;;;;25.40;12.98;;;;;;;-16.67;67.74;99557.19;317993;114;2780966;-70
2021/01/19 03:13:38;;;;;;;22.68;10.65;;;;;;;-16.69;67.80;99565.00;351287;114;1961939;-70
2021/01/19 03:14:44;;;;;;;23.13;12.21;;;;;;;-16.70;67.69;99572.78;312751;114;2242127;-70
2021/01/19 03:15:53;;;;;;;20.39;10.72;;;;;;;-16.71;67.65;99571.94;351906;114;1960903;-70
2021/01/19 03:17:10;;;;;;;22.44;11.09;;;;;;;-16.76;68.03;99578.11;348243;114;1962028;-70
2021/01/19 03:18:15;;;;;;;29.21;13.67;;;;;;;-16.73;67.81;99578.03;317555;114;2151610;-71
2021/01/19 03:19:21;;;;;;;29.09;13.20;;;;;;;-16.74;68.00;99577.19;349970;115;1961980;-70
2021/01/19 03:20:27;;;;;;;25.52;13.37;;;;;;;-16.74;67.86;99569.44;328499;113;2533056;-71
2021/01/19 03:21:32;;;;;;;27.38;13.26;;;;;;;-16.79;67.93;99576.48;345224;114;1961062;-71
2021/01/19 03:22:38;;;;;;;25.18;11.78;;;;;;;-16.78;68.02;99578.17;350515;114;1964043;-71
2021/01/19 03:23:44;;;;;;;24.11;11.79;;;;;;;-16.78;67.85;99573.00;342709;114;2861842;-71
2021/01/19 03:24:49;;;;;;;24.31;12.51;;;;;;;-16.78;67.97;99569.58;342492;114;1962040;-71
2021/01/19 03:25:54;;;;;;;22.27;12.71;;;;;;;-16.74;67.75;99568.59;352809;114;1963968;-71
2021/01/19 03:27:01;;;;;;;27.38;12.94;;;;;;;-16.76;67.72;99568.62;351505;114;1961985;-71
2021/01/19 03:28:06;;;;;;;23.89;11.48;;;;;;;-16.79;67.93;99567.89;350564;114;1960822;-71
2021/01/19 03:29:12;;;;;;;26.73;12.43;;;;;;;-16.80;67.80;99561.00;351730;114;1961951;-71
2021/01/19 03:30:20;;;;;;;21.98;11.38;;;;;;;-16.79;67.94;99567.89;353481;111;1960697;-71
2021/01/19 03:31:25;;;;;;;25.90;13.35;;;;;;;-16.81;67.84;99562.75;352090;113;1961068;-71
2021/01/19 03:32:30;;;;;;;24.97;11.92;;;;;;;-16.78;67.72;99567.83;334359;115;2207795;-71
2021/01/19 03:33:36;;;;;;;24.66;12.62;;;;;;;-16.78;67.73;99566.98;348463;113;1962022;-71
2021/01/19 03:34:42;;;;;;;28.52;13.99;;;;;;;-16.80;67.87;99566.17;350138;114;1963969;-71
2021/01/19 03:35:48;;;;;;;25.40;12.74;;;;;;;-16.79;67.93;99567.89;314977;114;2203142;-71
2021/01/19 03:36:53;;;;;;;24.38;12.68;;;;;;;-16.81;67.82;99570.50;350414;114;1961955;-70
2021/01/19 03:37:59;;;;;;;27.26;14.04;;;;;;;-16.80;67.72;99571.34;344883;114;2845935;-71
2021/01/19 03:39:05;;;;;;;26.14;11.51;;;;;;;-16.82;67.95;99570.55;336411;114;1961997;-70
2021/01/19 03:40:13;;;;;;;24.18;12.28;;;;;;;-16.82;67.80;99576.56;320357;114;2830993;-70
2021/01/19 03:41:18;;;;;;;29.59;12.72;;;;;;;-16.82;67.72;99575.72;349266;113;1961930;-71
2021/01/19 03:42:24;;;;;;;25.43;13.94;;;;;;;-16.81;67.85;99577.41;350851;114;1965986;-70
2021/01/19 03:43:30;;;;;;;28.04;12.70;;;;;;;-16.79;67.89;99567.89;328957;114;1964892;-71
2021/01/19 03:44:35;;;;;;;32.27;13.22;;;;;;;-16.79;67.79;99571.31;350781;114;1961908;-71
2021/01/19 03:45:40;;;;;;;25.14;12.17;;;;;;;-16.77;67.84;99568.67;351745;114;1963991;-70
2021/01/19 03:47:00;;;;;;;24.51;13.74;;;;;;;-16.76;67.79;99563.45;324441;114;2163999;-70
2021/01/19 03:48:05;;;;;;;26.27;14.04;;;;;;;-16.71;67.75;99563.34;333716;106;2194352;-71
2021/01/19 03:49:13;;;;;;;27.69;11.99;;;;;;;-16.68;67.61;99558.94;378703;105;1961932;-70
2021/01/19 03:50:21;;;;;;;25.55;13.02;;;;;;;-16.67;67.61;99560.66;375042;105;1961984;-70
2021/01/19 03:51:26;;;;;;;30.63;14.06;;;;;;;-16.63;67.52;99557.09;336028;105;2198672;-70
2021/01/19 03:52:32;;;;;;;29.48;15.07;;;;;;;-16.57;67.36;99565.58;378877;105;1961857;-71
2021/01/19 03:53:37;;;;;;;25.76;12.48;;;;;;;-16.57;67.29;99566.42;378114;105;1961953;-70
2021/01/19 03:54:43;;;;;;;26.21;13.07;;;;;;;-16.53;67.32;99568.05;341577;105;2113233;-70
2021/01/19 03:55:49;;;;;;;27.44;13.22;;;;;;;-16.50;67.16;99573.13;378574;105;1961952;-70
2021/01/19 03:56:55;;;;;;;30.12;14.11;;;;;;;-16.49;67.08;99574.82;378694;105;1961998;-70
2021/01/19 03:58:01;;;;;;;28.79;14.19;;;;;;;-16.47;67.01;99567.04;364708;105;1964983;-70
2021/01/19 03:59:08;;;;;;;26.39;12.51;;;;;;;-16.46;66.98;99560.97;342514;106;2736000;-71
2021/01/19 04:00:17;;;;;;;30.79;14.73;;;;;;;-16.45;66.84;99568.70;377194;105;1961988;-70
2021/01/19 04:01:22;;;;;;;28.88;14.09;;;;;;;-16.44;66.81;99565.21;355523;106;1960708;-71
2021/01/19 04:02:28;;;;;;;30.03;13.84;;;;;;;-16.46;66.76;99568.72;359438;110;1961948;-71
2021/01/19 04:03:34;;;;;;;25.84;13.77;;;;;;;-16.47;66.71;99567.88;350204;110;2266982;-71
2021/01/19 04:04:40;;;;;;;28.13;14.47;;;;;;;-16.49;66.66;99571.39;359771;110;1962002;-70
2021/01/19 04:05:46;;;;;;;25.88;14.43;;;;;;;-16.50;66.70;99573.13;349793;113;1960829;-70
2021/01/19 04:06:53;;;;;;;26.97;14.81;;;;;;;-16.50;66.63;99575.72;360014;110;1961964;-70
2021/01/19 04:08:11;;;;;;;30.17;14.78;;;;;;;-16.56;66.62;99569.84;359471;110;1963020;-71
2021/01/19 04:09:29;;;;;;;26.62;13.30;;;;;;;-16.60;66.74;99569.08;352088;109;2886917;-71
2021/01/19 04:10:35;;;;;;;21.68;11.95;;;;;;;-16.62;66.85;99560.52;366697;108;1961973;-71
2021/01/19 04:11:42;;;;;;;27.68;13.13;;;;;;;-16.63;66.82;99562.25;330147;109;2231294;-71
2021/01/19 04:12:48;;;;;;;31.39;14.31;;;;;;;-16.61;66.84;99559.64;368980;108;1962985;-70
2021/01/19 04:13:53;;;;;;;22.35;11.96;;;;;;;-16.60;66.77;99561.33;359863;109;2188970;-70
2021/01/19 04:14:58;;;;;;;27.79;13.76;;;;;;;-16.59;66.68;99560.43;363129;109;1965003;-70
2021/01/19 04:16:05;;;;;;;27.43;12.96;;;;;;;-16.65;66.62;99560.59;365452;109;1962971;-70
2021/01/19 04:17:10;;;;;;;28.52;14.07;;;;;;;-16.68;66.68;99561.52;359562;106;2193602;-70
2021/01/19 04:18:16;;;;;;;25.19;13.10;;;;;;;-16.69;66.69;99566.75;366582;105;1960590;-70
2021/01/19 04:19:21;;;;;;;26.67;12.55;;;;;;;-16.71;66.70;99565.93;357460;111;1962925;-71
2021/01/19 04:20:29;;;;;;;24.73;13.06;;;;;;;-16.74;66.85;99563.42;356427;111;1961971;-70
2021/01/19 04:21:34;;;;;;;28.75;15.28;;;;;;;-16.77;66.99;99566.09;355906;111;1960857;-71
2021/01/19 04:22:40;;;;;;;25.39;12.11;;;;;;;-16.78;67.12;99552.33;339463;111;2184903;-70
2021/01/19 04:23:45;;;;;;;23.47;11.00;;;;;;;-16.81;66.94;99551.57;356010;111;1963029;-71
2021/01/19 04:24:51;;;;;;;28.39;13.74;;;;;;;-16.82;67.00;99555.89;354569;111;1961996;-71
2021/01/19 04:26:08;;;;;;;28.96;14.51;;;;;;;-16.84;66.94;99560.24;317177;114;2058500;-70
2021/01/19 04:27:16;;;;;;;25.78;13.68;;;;;;;-16.87;67.12;99562.91;366809;109;1962959;-71
2021/01/19 04:28:25;;;;;;;27.67;12.01;;;;;;;-16.87;67.00;99561.16;363077;110;1962008;-70
2021/01/19 04:29:31;;;;;;;25.97;12.04;;;;;;;-16.88;67.20;99563.77;367355;109;1961899;-71
2021/01/19 04:30:39;;;;;;;23.98;13.51;;;;;;;-16.87;67.26;99565.48;366198;108;1961928;-70
2021/01/19 04:31:45;;;;;;;27.98;13.40;;;;;;;-16.89;67.18;99564.67;326921;109;2815706;-71
2021/01/19 04:32:50;;;;;;;23.18;11.74;;;;;;;-16.96;67.48;99569.15;351790;113;1961982;-71
2021/01/19 04:33:57;;;;;;;25.37;13.97;;;;;;;-16.93;67.35;99560.45;362101;108;1964982;-71
2021/01/19 04:35:04;;;;;;;26.29;14.64;;;;;;;-16.93;67.33;99565.61;363478;105;2193948;-70
2021/01/19 04:36:11;;;;;;;29.77;13.60;;;;;;;-17.00;67.23;99562.34;369293;105;2193903;-70
2021/01/19 04:37:16;;;;;;;26.89;12.92;;;;;;;-17.02;67.46;99561.53;372714;105;1961900;-70
2021/01/19 04:38:22;;;;;;;24.61;12.23;;;;;;;-17.02;67.69;99558.94;376931;105;1961998;-71
2021/01/19 04:39:27;;;;;;;28.67;14.02;;;;;;;-17.04;67.82;99559.87;362960;105;2193970;-71
2021/01/19 04:40:34;;;;;;;29.25;14.17;;;;;;;-17.08;67.86;99566.84;376154;106;1962949;-71
2021/01/19 04:41:40;;;;;;;28.17;14.26;;;;;;;-17.09;67.81;99570.30;365939;108;2838964;-70
2021/01/19 04:42:46;;;;;;;28.89;14.34;;;;;;;-17.08;67.71;99572.02;374986;106;1961962;-71
2021/01/19 04:43:53;;;;;;;31.67;12.76;;;;;;;-17.14;67.79;99577.33;375486;105;1961973;-71
2021/01/19 04:44:59;;;;;;;28.97;14.89;;;;;;;-17.14;67.81;99575.59;359384;105;1962016;-71
2021/01/19 04:46:07;;;;;;;30.89;13.85;;;;;;;-17.16;67.95;99577.35;365933;106;2847960;-71
2021/01/19 04:47:13;;;;;;;28.81;12.81;;;;;;;-17.18;67.95;99570.52;375586;105;1962011;-71
2021/01/19 04:48:20;;;;;;;29.07;13.53;;;;;;;-17.19;68.15;99574.00;346500;105;2202944;-71
2021/01/19 04:49:40;;;;;;;28.08;12.81;;;;;;;-17.19;68.20;99579.17;376328;105;1962053;-69
2021/01/19 04:50:48;;;;;;;29.42;16.13;;;;;;;-17.20;68.23;99567.97;372297;107;1960788;-70
2021/01/19 04:51:57;;;;;;;28.00;13.76;;;;;;;-17.16;68.16;99568.77;371285;108;1960834;-70
2021/01/19 04:53:03;;;;;;;29.56;14.47;;;;;;;-17.14;68.11;99580.75;370006;108;1960739;-70
2021/01/19 04:54:09;;;;;;;29.83;13.94;;;;;;;-17.11;67.98;99579.84;355335;106;1960840;-70
2021/01/19 04:55:25;;;;;;;29.32;13.76;;;;;;;-17.12;68.07;99576.41;367333;109;1960884;-70
2021/01/19 04:56:34;;;;;;;30.05;14.61;;;;;;;-17.11;67.99;99580.68;367391;109;1960696;-70
2021/01/19 04:57:41;;;;;;;28.98;14.94;;;;;;;-17.11;67.99;99579.84;356266;107;1961861;-70
2021/01/19 04:58:50;;;;;;;26.86;13.15;;;;;;;-17.10;67.99;99587.53;369693;107;1963793;-70
2021/01/19 05:00:09;;;;;;;32.54;13.89;;;;;;;-17.30;67.89;99541.53;350296;109;2895972;-70
2021/01/19 05:01:21;;;;;;;28.57;13.33;;;;;;;-17.05;67.91;99577.10;359455;107;2838983;-70
2021/01/19 05:02:42;;;;;;;27.74;13.93;;;;;;;-17.03;67.68;99580.50;367755;109;1963022;-71
2021/01/19 05:03:57;;;;;;;30.50;14.11;;;;;;;-17.02;67.69;99576.18;347821;113;2242942;-70
2021/01/19 05:05:32;;;;;;;26.85;13.33;;;;;;;-17.04;67.77;99581.37;344101;109;1962991;-71
2021/01/19 05:06:45;;;;;;;25.72;12.35;;;;;;;-17.03;67.80;99583.09;361615;109;1960624;-70